sensor_id;sensor_type;location;lat;lon;timestamp;P1;durP1;ratioP1;P2;durP2;ratioP2
13108;SDS011;6620;53.734;11.510;2023-02-13T00:01:48;16.25;;;9.48;;
13108;SDS011;6620;53.734;11.510;2023-02-13T00:04:13;13.53;;;8.43;;
13108;SDS011;6620;53.734;11.510;2023-02-13T00:06:39;17.17;;;9.90;;
13108;SDS011;6620;53.734;11.510;2023-02-13T00:09:04;19.17;;;10.17;;
13108;SDS011;6620;53.734;11.510;2023-02-13T00:11:29;15.23;;;9.18;;
13108;SDS011;6620;53.734;11.510;2023-02-13T00:13:54;17.07;;;9.93;;
13108;SDS011;6620;53.734;11.510;2023-02-13T00:16:19;14.70;;;9.20;;
13108;SDS011;6620;53.734;11.510;2023-02-13T00:18:45;17.83;;;8.87;;
13108;SDS011;6620;53.734;11.510;2023-02-13T00:21:10;13.87;;;10.27;;
13108;SDS011;6620;53.734;11.510;2023-02-13T00:23:36;14.80;;;9.95;;
13108;SDS011;6620;53.734;11.510;2023-02-13T00:26:06;12.93;;;9.25;;
13108;SDS011;6620;53.734;11.510;2023-02-13T00:28:31;13.80;;;9.93;;
13108;SDS011;6620;53.734;11.510;2023-02-13T00:31:03;14.87;;;9.93;;
13108;SDS011;6620;53.734;11.510;2023-02-13T00:33:29;14.02;;;9.35;;
13108;SDS011;6620;53.734;11.510;2023-02-13T00:36:07;14.67;;;9.57;;
13108;SDS011;6620;53.734;11.510;2023-02-13T00:38:33;13.98;;;9.40;;
13108;SDS011;6620;53.734;11.510;2023-02-13T00:40:59;13.82;;;8.70;;
13108;SDS011;6620;53.734;11.510;2023-02-13T00:43:24;13.85;;;9.38;;
13108;SDS011;6620;53.734;11.510;2023-02-13T00:45:49;14.20;;;9.50;;
13108;SDS011;6620;53.734;11.510;2023-02-13T00:48:14;14.33;;;9.37;;
13108;SDS011;6620;53.734;11.510;2023-02-13T00:50:40;16.33;;;10.05;;
13108;SDS011;6620;53.734;11.510;2023-02-13T00:53:05;15.90;;;8.87;;
13108;SDS011;6620;53.734;11.510;2023-02-13T00:55:30;15.43;;;9.80;;
13108;SDS011;6620;53.734;11.510;2023-02-13T00:57:55;14.70;;;8.87;;
13108;SDS011;6620;53.734;11.510;2023-02-13T01:00:20;14.30;;;9.63;;
13108;SDS011;6620;53.734;11.510;2023-02-13T01:02:46;15.48;;;9.38;;
13108;SDS011;6620;53.734;11.510;2023-02-13T01:05:11;16.25;;;10.30;;
13108;SDS011;6620;53.734;11.510;2023-02-13T01:07:37;13.55;;;9.07;;
13108;SDS011;6620;53.734;11.510;2023-02-13T01:10:02;11.73;;;7.77;;
13108;SDS011;6620;53.734;11.510;2023-02-13T01:12:27;15.00;;;9.80;;
13108;SDS011;6620;53.734;11.510;2023-02-13T01:14:52;11.30;;;7.77;;
13108;SDS011;6620;53.734;11.510;2023-02-13T01:17:17;10.80;;;7.17;;
13108;SDS011;6620;53.734;11.510;2023-02-13T01:19:43;13.40;;;7.72;;
13108;SDS011;6620;53.734;11.510;2023-02-13T01:22:08;14.57;;;7.87;;
13108;SDS011;6620;53.734;11.510;2023-02-13T01:24:33;13.77;;;7.65;;
13108;SDS011;6620;53.734;11.510;2023-02-13T01:26:58;11.15;;;7.93;;
13108;SDS011;6620;53.734;11.510;2023-02-13T01:29:26;13.32;;;8.45;;
13108;SDS011;6620;53.734;11.510;2023-02-13T01:31:51;11.93;;;7.97;;
13108;SDS011;6620;53.734;11.510;2023-02-13T01:34:16;12.87;;;7.93;;
13108;SDS011;6620;53.734;11.510;2023-02-13T01:36:41;13.43;;;8.37;;
13108;SDS011;6620;53.734;11.510;2023-02-13T01:39:09;13.95;;;7.28;;
13108;SDS011;6620;53.734;11.510;2023-02-13T01:41:35;12.23;;;7.80;;
13108;SDS011;6620;53.734;11.510;2023-02-13T01:44:00;11.87;;;7.57;;
13108;SDS011;6620;53.734;11.510;2023-02-13T01:48:55;11.05;;;8.10;;
13108;SDS011;6620;53.734;11.510;2023-02-13T01:51:26;12.18;;;6.68;;
13108;SDS011;6620;53.734;11.510;2023-02-13T01:53:55;10.63;;;7.43;;
13108;SDS011;6620;53.734;11.510;2023-02-13T01:58:48;9.10;;;6.40;;
13108;SDS011;6620;53.734;11.510;2023-02-13T02:01:15;9.27;;;5.78;;
13108;SDS011;6620;53.734;11.510;2023-02-13T02:03:49;9.52;;;5.53;;
13108;SDS011;6620;53.734;11.510;2023-02-13T02:06:24;8.98;;;6.10;;
13108;SDS011;6620;53.734;11.510;2023-02-13T02:08:50;7.82;;;5.45;;
13108;SDS011;6620;53.734;11.510;2023-02-13T02:11:35;7.65;;;5.90;;
13108;SDS011;6620;53.734;11.510;2023-02-13T02:14:03;9.13;;;5.18;;
13108;SDS011;6620;53.734;11.510;2023-02-13T02:16:28;10.67;;;5.87;;
13108;SDS011;6620;53.734;11.510;2023-02-13T02:18:55;13.10;;;5.68;;
13108;SDS011;6620;53.734;11.510;2023-02-13T02:26:34;7.18;;;4.70;;
13108;SDS011;6620;53.734;11.510;2023-02-13T02:41:57;7.22;;;5.20;;
13108;SDS011;6620;53.734;11.510;2023-02-13T02:47:02;9.95;;;4.50;;
13108;SDS011;6620;53.734;11.510;2023-02-13T02:52:40;7.43;;;5.80;;
13108;SDS011;6620;53.734;11.510;2023-02-13T02:55:10;5.53;;;4.97;;
13108;SDS011;6620;53.734;11.510;2023-02-13T03:00:23;8.43;;;6.65;;
13108;SDS011;6620;53.734;11.510;2023-02-13T03:03:10;6.00;;;5.03;;
13108;SDS011;6620;53.734;11.510;2023-02-13T03:05:55;7.97;;;6.45;;
13108;SDS011;6620;53.734;11.510;2023-02-13T03:08:37;7.63;;;5.80;;
13108;SDS011;6620;53.734;11.510;2023-02-13T03:11:22;9.32;;;7.05;;
13108;SDS011;6620;53.734;11.510;2023-02-13T03:14:10;11.98;;;7.35;;
13108;SDS011;6620;53.734;11.510;2023-02-13T03:16:36;7.43;;;6.43;;
13108;SDS011;6620;53.734;11.510;2023-02-13T03:24:52;12.02;;;7.63;;
13108;SDS011;6620;53.734;11.510;2023-02-13T03:30:18;12.05;;;7.32;;
13108;SDS011;6620;53.734;11.510;2023-02-13T03:41:06;9.18;;;7.28;;
13108;SDS011;6620;53.734;11.510;2023-02-13T03:46:09;10.90;;;7.17;;
13108;SDS011;6620;53.734;11.510;2023-02-13T03:48:36;8.98;;;6.72;;
13108;SDS011;6620;53.734;11.510;2023-02-13T03:51:33;10.43;;;4.75;;
13108;SDS011;6620;53.734;11.510;2023-02-13T03:54:01;8.02;;;5.65;;
13108;SDS011;6620;53.734;11.510;2023-02-13T03:56:27;8.98;;;6.32;;
13108;SDS011;6620;53.734;11.510;2023-02-13T03:59:18;9.23;;;6.22;;
13108;SDS011;6620;53.734;11.510;2023-02-13T04:01:45;7.10;;;4.55;;
13108;SDS011;6620;53.734;11.510;2023-02-13T04:06:59;6.10;;;4.30;;
13108;SDS011;6620;53.734;11.510;2023-02-13T04:09:23;8.05;;;4.10;;
13108;SDS011;6620;53.734;11.510;2023-02-13T04:16:49;7.33;;;3.57;;
13108;SDS011;6620;53.734;11.510;2023-02-13T04:19:16;5.40;;;4.10;;
13108;SDS011;6620;53.734;11.510;2023-02-13T04:21:41;4.47;;;3.50;;
13108;SDS011;6620;53.734;11.510;2023-02-13T04:24:07;4.40;;;3.42;;
13108;SDS011;6620;53.734;11.510;2023-02-13T04:26:36;4.80;;;4.32;;
13108;SDS011;6620;53.734;11.510;2023-02-13T04:29:02;6.18;;;3.55;;
13108;SDS011;6620;53.734;11.510;2023-02-13T04:31:27;4.70;;;2.80;;
13108;SDS011;6620;53.734;11.510;2023-02-13T04:33:52;3.55;;;2.97;;
13108;SDS011;6620;53.734;11.510;2023-02-13T04:36:17;3.53;;;3.23;;
13108;SDS011;6620;53.734;11.510;2023-02-13T04:38:43;3.77;;;2.57;;
13108;SDS011;6620;53.734;11.510;2023-02-13T04:41:09;4.80;;;3.00;;
13108;SDS011;6620;53.734;11.510;2023-02-13T04:43:34;3.80;;;2.83;;
13108;SDS011;6620;53.734;11.510;2023-02-13T04:45:59;3.03;;;2.50;;
13108;SDS011;6620;53.734;11.510;2023-02-13T04:48:25;4.32;;;2.85;;
13108;SDS011;6620;53.734;11.510;2023-02-13T04:50:50;3.88;;;3.05;;
13108;SDS011;6620;53.734;11.510;2023-02-13T04:53:15;5.68;;;3.45;;
13108;SDS011;6620;53.734;11.510;2023-02-13T04:55:40;3.27;;;2.20;;
13108;SDS011;6620;53.734;11.510;2023-02-13T04:58:05;4.23;;;2.77;;
13108;SDS011;6620;53.734;11.510;2023-02-13T05:00:31;3.17;;;2.77;;
13108;SDS011;6620;53.734;11.510;2023-02-13T05:03:00;3.88;;;3.33;;
13108;SDS011;6620;53.734;11.510;2023-02-13T05:05:28;5.13;;;3.28;;
13108;SDS011;6620;53.734;11.510;2023-02-13T05:07:53;4.00;;;2.70;;
13108;SDS011;6620;53.734;11.510;2023-02-13T05:10:18;3.97;;;2.57;;
13108;SDS011;6620;53.734;11.510;2023-02-13T05:12:43;9.83;;;2.90;;
13108;SDS011;6620;53.734;11.510;2023-02-13T05:15:08;3.17;;;2.30;;
13108;SDS011;6620;53.734;11.510;2023-02-13T05:17:33;3.93;;;2.40;;
13108;SDS011;6620;53.734;11.510;2023-02-13T05:19:59;3.00;;;2.70;;
13108;SDS011;6620;53.734;11.510;2023-02-13T05:22:24;2.70;;;2.22;;
13108;SDS011;6620;53.734;11.510;2023-02-13T05:25:08;4.45;;;3.20;;
13108;SDS011;6620;53.734;11.510;2023-02-13T05:27:33;3.25;;;2.92;;
13108;SDS011;6620;53.734;11.510;2023-02-13T05:29:58;3.50;;;2.67;;
13108;SDS011;6620;53.734;11.510;2023-02-13T05:32:23;3.00;;;2.70;;
13108;SDS011;6620;53.734;11.510;2023-02-13T05:34:49;6.57;;;3.30;;
13108;SDS011;6620;53.734;11.510;2023-02-13T05:37:14;3.67;;;3.00;;
13108;SDS011;6620;53.734;11.510;2023-02-13T05:39:39;5.35;;;3.20;;
13108;SDS011;6620;53.734;11.510;2023-02-13T05:42:04;6.10;;;3.10;;
13108;SDS011;6620;53.734;11.510;2023-02-13T05:44:30;4.45;;;3.05;;
13108;SDS011;6620;53.734;11.510;2023-02-13T05:46:55;8.73;;;3.95;;
13108;SDS011;6620;53.734;11.510;2023-02-13T05:49:20;3.63;;;2.80;;
13108;SDS011;6620;53.734;11.510;2023-02-13T05:51:46;5.45;;;3.40;;
13108;SDS011;6620;53.734;11.510;2023-02-13T05:54:12;5.25;;;3.50;;
13108;SDS011;6620;53.734;11.510;2023-02-13T05:56:37;10.30;;;4.60;;
13108;SDS011;6620;53.734;11.510;2023-02-13T05:59:02;8.05;;;5.22;;
13108;SDS011;6620;53.734;11.510;2023-02-13T06:01:28;6.78;;;3.80;;
13108;SDS011;6620;53.734;11.510;2023-02-13T06:03:53;5.97;;;4.55;;
13108;SDS011;6620;53.734;11.510;2023-02-13T06:06:18;11.75;;;4.95;;
13108;SDS011;6620;53.734;11.510;2023-02-13T06:08:43;9.32;;;5.20;;
13108;SDS011;6620;53.734;11.510;2023-02-13T06:11:09;9.97;;;5.57;;
13108;SDS011;6620;53.734;11.510;2023-02-13T06:13:34;11.25;;;6.80;;
13108;SDS011;6620;53.734;11.510;2023-02-13T06:15:59;15.73;;;7.97;;
13108;SDS011;6620;53.734;11.510;2023-02-13T06:18:24;15.13;;;8.23;;
13108;SDS011;6620;53.734;11.510;2023-02-13T06:20:50;16.95;;;9.60;;
13108;SDS011;6620;53.734;11.510;2023-02-13T06:23:16;18.02;;;8.82;;
13108;SDS011;6620;53.734;11.510;2023-02-13T06:25:41;15.48;;;9.43;;
13108;SDS011;6620;53.734;11.510;2023-02-13T06:28:06;20.27;;;11.30;;
13108;SDS011;6620;53.734;11.510;2023-02-13T06:30:32;18.10;;;9.80;;
13108;SDS011;6620;53.734;11.510;2023-02-13T06:32:57;33.85;;;16.80;;
13108;SDS011;6620;53.734;11.510;2023-02-13T06:35:22;23.33;;;11.75;;
13108;SDS011;6620;53.734;11.510;2023-02-13T06:37:48;26.77;;;13.95;;
13108;SDS011;6620;53.734;11.510;2023-02-13T06:40:13;26.55;;;13.90;;
13108;SDS011;6620;53.734;11.510;2023-02-13T06:42:39;26.63;;;13.90;;
13108;SDS011;6620;53.734;11.510;2023-02-13T06:45:05;28.75;;;15.15;;
13108;SDS011;6620;53.734;11.510;2023-02-13T06:47:30;30.33;;;15.77;;
13108;SDS011;6620;53.734;11.510;2023-02-13T06:49:56;29.10;;;15.40;;
13108;SDS011;6620;53.734;11.510;2023-02-13T06:52:21;28.80;;;15.30;;
13108;SDS011;6620;53.734;11.510;2023-02-13T06:54:46;28.42;;;15.23;;
13108;SDS011;6620;53.734;11.510;2023-02-13T06:57:11;30.13;;;16.70;;
13108;SDS011;6620;53.734;11.510;2023-02-13T06:59:37;25.85;;;13.52;;
13108;SDS011;6620;53.734;11.510;2023-02-13T07:02:02;31.83;;;16.60;;
13108;SDS011;6620;53.734;11.510;2023-02-13T07:04:27;33.05;;;16.65;;
13108;SDS011;6620;53.734;11.510;2023-02-13T07:06:53;31.30;;;16.70;;
13108;SDS011;6620;53.734;11.510;2023-02-13T07:09:19;29.38;;;16.73;;
13108;SDS011;6620;53.734;11.510;2023-02-13T07:11:44;31.57;;;17.67;;
13108;SDS011;6620;53.734;11.510;2023-02-13T07:14:09;29.93;;;17.33;;
13108;SDS011;6620;53.734;11.510;2023-02-13T07:16:34;30.77;;;15.97;;
13108;SDS011;6620;53.734;11.510;2023-02-13T07:18:59;35.78;;;17.05;;
13108;SDS011;6620;53.734;11.510;2023-02-13T07:21:25;34.20;;;15.88;;
13108;SDS011;6620;53.734;11.510;2023-02-13T07:23:50;34.97;;;17.95;;
13108;SDS011;6620;53.734;11.510;2023-02-13T07:26:16;33.20;;;16.65;;
13108;SDS011;6620;53.734;11.510;2023-02-13T07:28:41;29.05;;;16.58;;
13108;SDS011;6620;53.734;11.510;2023-02-13T07:31:06;30.48;;;16.58;;
13108;SDS011;6620;53.734;11.510;2023-02-13T07:33:32;29.42;;;15.98;;
13108;SDS011;6620;53.734;11.510;2023-02-13T07:35:57;33.03;;;15.38;;
13108;SDS011;6620;53.734;11.510;2023-02-13T07:38:22;30.93;;;14.70;;
13108;SDS011;6620;53.734;11.510;2023-02-13T07:40:47;29.37;;;15.60;;
13108;SDS011;6620;53.734;11.510;2023-02-13T07:43:13;29.00;;;15.20;;
13108;SDS011;6620;53.734;11.510;2023-02-13T07:45:38;32.45;;;15.88;;
13108;SDS011;6620;53.734;11.510;2023-02-13T07:48:03;33.07;;;16.43;;
13108;SDS011;6620;53.734;11.510;2023-02-13T07:50:28;33.65;;;16.40;;
13108;SDS011;6620;53.734;11.510;2023-02-13T07:52:58;29.88;;;16.63;;
13108;SDS011;6620;53.734;11.510;2023-02-13T07:55:23;32.85;;;16.85;;
13108;SDS011;6620;53.734;11.510;2023-02-13T07:57:49;35.83;;;16.52;;
13108;SDS011;6620;53.734;11.510;2023-02-13T08:00:14;32.95;;;16.77;;
13108;SDS011;6620;53.734;11.510;2023-02-13T08:02:39;28.55;;;13.07;;
13108;SDS011;6620;53.734;11.510;2023-02-13T08:05:05;34.47;;;17.33;;
13108;SDS011;6620;53.734;11.510;2023-02-13T08:07:30;32.67;;;15.07;;
13108;SDS011;6620;53.734;11.510;2023-02-13T08:09:55;29.83;;;16.00;;
13108;SDS011;6620;53.734;11.510;2023-02-13T08:12:39;27.38;;;13.45;;
13108;SDS011;6620;53.734;11.510;2023-02-13T08:15:05;30.58;;;16.23;;
13108;SDS011;6620;53.734;11.510;2023-02-13T08:17:30;28.27;;;15.38;;
13108;SDS011;6620;53.734;11.510;2023-02-13T08:19:56;27.13;;;14.63;;
13108;SDS011;6620;53.734;11.510;2023-02-13T08:22:21;26.83;;;15.55;;
13108;SDS011;6620;53.734;11.510;2023-02-13T08:24:46;29.00;;;16.80;;
13108;SDS011;6620;53.734;11.510;2023-02-13T08:27:12;23.25;;;15.13;;
13108;SDS011;6620;53.734;11.510;2023-02-13T08:29:37;28.92;;;13.93;;
13108;SDS011;6620;53.734;11.510;2023-02-13T08:32:02;26.37;;;14.60;;
13108;SDS011;6620;53.734;11.510;2023-02-13T08:34:28;26.02;;;15.07;;
13108;SDS011;6620;53.734;11.510;2023-02-13T08:36:53;23.57;;;15.00;;
13108;SDS011;6620;53.734;11.510;2023-02-13T08:39:18;27.65;;;16.83;;
13108;SDS011;6620;53.734;11.510;2023-02-13T08:41:43;24.40;;;14.57;;
13108;SDS011;6620;53.734;11.510;2023-02-13T08:44:09;26.27;;;13.97;;
13108;SDS011;6620;53.734;11.510;2023-02-13T08:46:34;25.75;;;16.75;;
13108;SDS011;6620;53.734;11.510;2023-02-13T08:48:59;26.07;;;15.83;;
13108;SDS011;6620;53.734;11.510;2023-02-13T08:51:24;24.93;;;16.07;;
13108;SDS011;6620;53.734;11.510;2023-02-13T08:53:50;25.60;;;17.27;;
13108;SDS011;6620;53.734;11.510;2023-02-13T08:56:15;28.55;;;17.77;;
13108;SDS011;6620;53.734;11.510;2023-02-13T08:58:40;27.73;;;16.30;;
13108;SDS011;6620;53.734;11.510;2023-02-13T09:01:06;27.27;;;16.97;;
13108;SDS011;6620;53.734;11.510;2023-02-13T09:03:32;29.23;;;17.20;;
13108;SDS011;6620;53.734;11.510;2023-02-13T09:05:58;26.27;;;17.73;;
13108;SDS011;6620;53.734;11.510;2023-02-13T09:08:23;26.58;;;18.08;;
13108;SDS011;6620;53.734;11.510;2023-02-13T09:10:54;26.63;;;18.00;;
13108;SDS011;6620;53.734;11.510;2023-02-13T09:13:19;31.27;;;18.20;;
13108;SDS011;6620;53.734;11.510;2023-02-13T09:15:44;26.33;;;16.87;;
13108;SDS011;6620;53.734;11.510;2023-02-13T09:18:10;29.53;;;18.13;;
13108;SDS011;6620;53.734;11.510;2023-02-13T09:20:35;33.07;;;19.07;;
13108;SDS011;6620;53.734;11.510;2023-02-13T09:23:00;28.23;;;19.17;;
13108;SDS011;6620;53.734;11.510;2023-02-13T09:25:25;26.00;;;18.30;;
13108;SDS011;6620;53.734;11.510;2023-02-13T09:27:50;30.65;;;21.48;;
13108;SDS011;6620;53.734;11.510;2023-02-13T09:30:16;29.98;;;17.83;;
13108;SDS011;6620;53.734;11.510;2023-02-13T09:32:47;29.77;;;19.83;;
13108;SDS011;6620;53.734;11.510;2023-02-13T09:35:13;29.13;;;19.30;;
13108;SDS011;6620;53.734;11.510;2023-02-13T09:37:39;28.35;;;19.25;;
13108;SDS011;6620;53.734;11.510;2023-02-13T09:40:04;30.30;;;19.27;;
13108;SDS011;6620;53.734;11.510;2023-02-13T09:42:30;30.20;;;19.98;;
13108;SDS011;6620;53.734;11.510;2023-02-13T09:45:00;28.95;;;18.45;;
13108;SDS011;6620;53.734;11.510;2023-02-13T09:47:33;28.63;;;18.38;;
13108;SDS011;6620;53.734;11.510;2023-02-13T09:50:33;28.25;;;18.65;;
13108;SDS011;6620;53.734;11.510;2023-02-13T09:52:52;26.85;;;17.30;;
13108;SDS011;6620;53.734;11.510;2023-02-13T09:55:20;29.58;;;18.50;;
13108;SDS011;6620;53.734;11.510;2023-02-13T10:00:23;24.73;;;16.00;;
13108;SDS011;6620;53.734;11.510;2023-02-13T10:08:02;25.77;;;16.57;;
13108;SDS011;6620;53.734;11.510;2023-02-13T10:13:18;23.42;;;16.45;;
13108;SDS011;6620;53.734;11.510;2023-02-13T10:15:50;23.63;;;15.98;;
13108;SDS011;6620;53.734;11.510;2023-02-13T10:18:18;22.70;;;13.55;;
13108;SDS011;6620;53.734;11.510;2023-02-13T10:20:46;22.33;;;16.30;;
13108;SDS011;6620;53.734;11.510;2023-02-13T10:23:26;19.92;;;13.45;;
13108;SDS011;6620;53.734;11.510;2023-02-13T10:28:21;24.38;;;15.93;;
13108;SDS011;6620;53.734;11.510;2023-02-13T10:33:17;21.58;;;13.95;;
13108;SDS011;6620;53.734;11.510;2023-02-13T10:35:47;19.83;;;14.82;;
13108;SDS011;6620;53.734;11.510;2023-02-13T10:38:17;22.85;;;14.50;;
13108;SDS011;6620;53.734;11.510;2023-02-13T10:40:59;26.30;;;13.10;;
13108;SDS011;6620;53.734;11.510;2023-02-13T10:43:27;23.88;;;15.40;;
13108;SDS011;6620;53.734;11.510;2023-02-13T10:45:55;26.70;;;16.38;;
13108;SDS011;6620;53.734;11.510;2023-02-13T10:53:26;17.20;;;13.18;;
13108;SDS011;6620;53.734;11.510;2023-02-13T10:55:58;16.02;;;12.88;;
13108;SDS011;6620;53.734;11.510;2023-02-13T11:03:22;14.15;;;9.30;;
13108;SDS011;6620;53.734;11.510;2023-02-13T11:05:47;14.48;;;9.32;;
13108;SDS011;6620;53.734;11.510;2023-02-13T11:10:44;12.75;;;10.05;;
13108;SDS011;6620;53.734;11.510;2023-02-13T11:13:17;11.57;;;10.00;;
13108;SDS011;6620;53.734;11.510;2023-02-13T11:15:42;13.40;;;7.68;;
13108;SDS011;6620;53.734;11.510;2023-02-13T11:18:20;13.30;;;10.20;;
13108;SDS011;6620;53.734;11.510;2023-02-13T11:20:46;14.32;;;10.02;;
13108;SDS011;6620;53.734;11.510;2023-02-13T11:25:38;13.80;;;10.33;;
13108;SDS011;6620;53.734;11.510;2023-02-13T11:28:06;12.90;;;9.90;;
13108;SDS011;6620;53.734;11.510;2023-02-13T11:30:33;11.63;;;9.98;;
13108;SDS011;6620;53.734;11.510;2023-02-13T11:35:28;12.48;;;9.75;;
13108;SDS011;6620;53.734;11.510;2023-02-13T11:38:19;13.82;;;9.60;;
13108;SDS011;6620;53.734;11.510;2023-02-13T11:40:45;10.88;;;8.95;;
13108;SDS011;6620;53.734;11.510;2023-02-13T11:45:42;12.77;;;8.40;;
13108;SDS011;6620;53.734;11.510;2023-02-13T11:48:08;10.63;;;8.15;;
13108;SDS011;6620;53.734;11.510;2023-02-13T11:50:41;11.57;;;8.27;;
13108;SDS011;6620;53.734;11.510;2023-02-13T11:53:08;11.15;;;7.40;;
13108;SDS011;6620;53.734;11.510;2023-02-13T11:55:40;9.57;;;7.60;;
13108;SDS011;6620;53.734;11.510;2023-02-13T12:00:39;10.23;;;8.45;;
13108;SDS011;6620;53.734;11.510;2023-02-13T12:08:34;8.68;;;6.20;;
13108;SDS011;6620;53.734;11.510;2023-02-13T12:11:00;14.15;;;6.72;;
13108;SDS011;6620;53.734;11.510;2023-02-13T12:13:29;12.05;;;7.78;;
13108;SDS011;6620;53.734;11.510;2023-02-13T12:15:59;10.70;;;8.23;;
13108;SDS011;6620;53.734;11.510;2023-02-13T12:18:31;12.02;;;8.95;;
13108;SDS011;6620;53.734;11.510;2023-02-13T12:31:33;13.15;;;8.85;;
13108;SDS011;6620;53.734;11.510;2023-02-13T12:37:05;15.17;;;9.90;;
13108;SDS011;6620;53.734;11.510;2023-02-13T12:41:54;14.43;;;7.73;;
13108;SDS011;6620;53.734;11.510;2023-02-13T12:44:35;14.10;;;9.32;;
13108;SDS011;6620;53.734;11.510;2023-02-13T12:47:22;17.08;;;9.93;;
13108;SDS011;6620;53.734;11.510;2023-02-13T13:00:02;12.80;;;9.13;;
13108;SDS011;6620;53.734;11.510;2023-02-13T13:05:24;13.27;;;6.68;;
13108;SDS011;6620;53.734;11.510;2023-02-13T13:08:01;13.35;;;10.23;;
13108;SDS011;6620;53.734;11.510;2023-02-13T13:13:06;14.77;;;10.27;;
13108;SDS011;6620;53.734;11.510;2023-02-13T13:15:39;17.45;;;9.32;;
13108;SDS011;6620;53.734;11.510;2023-02-13T13:20:43;15.35;;;10.88;;
13108;SDS011;6620;53.734;11.510;2023-02-13T13:23:12;16.20;;;11.57;;
13108;SDS011;6620;53.734;11.510;2023-02-13T13:28:21;15.48;;;10.25;;
13108;SDS011;6620;53.734;11.510;2023-02-13T13:30:47;14.73;;;11.05;;
13108;SDS011;6620;53.734;11.510;2023-02-13T13:33:14;16.38;;;11.32;;
13108;SDS011;6620;53.734;11.510;2023-02-13T13:35:41;16.30;;;11.05;;
13108;SDS011;6620;53.734;11.510;2023-02-13T13:38:13;13.48;;;10.88;;
13108;SDS011;6620;53.734;11.510;2023-02-13T13:40:44;16.17;;;11.55;;
13108;SDS011;6620;53.734;11.510;2023-02-13T13:51:23;16.55;;;12.10;;
13108;SDS011;6620;53.734;11.510;2023-02-13T13:54:22;18.52;;;12.18;;
13108;SDS011;6620;53.734;11.510;2023-02-13T13:59:18;18.80;;;12.70;;
13108;SDS011;6620;53.734;11.510;2023-02-13T14:01:43;18.80;;;12.32;;
13108;SDS011;6620;53.734;11.510;2023-02-13T14:07:14;17.88;;;12.50;;
13108;SDS011;6620;53.734;11.510;2023-02-13T14:09:40;19.20;;;13.00;;
13108;SDS011;6620;53.734;11.510;2023-02-13T14:14:49;17.20;;;10.98;;
13108;SDS011;6620;53.734;11.510;2023-02-13T14:17:16;21.33;;;13.23;;
13108;SDS011;6620;53.734;11.510;2023-02-13T14:20:01;19.83;;;12.88;;
13108;SDS011;6620;53.734;11.510;2023-02-13T14:22:32;21.25;;;12.85;;
13108;SDS011;6620;53.734;11.510;2023-02-13T14:25:02;20.30;;;10.70;;
13108;SDS011;6620;53.734;11.510;2023-02-13T14:27:29;18.77;;;12.45;;
13108;SDS011;6620;53.734;11.510;2023-02-13T14:29:54;11.75;;;6.22;;
13108;SDS011;6620;53.734;11.510;2023-02-13T14:32:26;20.77;;;13.85;;
13108;SDS011;6620;53.734;11.510;2023-02-13T14:34:55;23.05;;;12.75;;
13108;SDS011;6620;53.734;11.510;2023-02-13T14:37:32;21.20;;;13.65;;
13108;SDS011;6620;53.734;11.510;2023-02-13T14:40:25;17.73;;;12.05;;
13108;SDS011;6620;53.734;11.510;2023-02-13T14:45:17;17.85;;;12.45;;
13108;SDS011;6620;53.734;11.510;2023-02-13T14:47:46;22.58;;;14.32;;
13108;SDS011;6620;53.734;11.510;2023-02-13T14:50:19;20.98;;;13.63;;
13108;SDS011;6620;53.734;11.510;2023-02-13T14:52:45;22.40;;;13.40;;
13108;SDS011;6620;53.734;11.510;2023-02-13T14:55:13;23.70;;;14.68;;
13108;SDS011;6620;53.734;11.510;2023-02-13T14:57:44;20.67;;;13.52;;
13108;SDS011;6620;53.734;11.510;2023-02-13T15:00:38;23.52;;;14.63;;
13108;SDS011;6620;53.734;11.510;2023-02-13T15:05:52;25.25;;;14.52;;
13108;SDS011;6620;53.734;11.510;2023-02-13T15:08:23;25.02;;;15.70;;
13108;SDS011;6620;53.734;11.510;2023-02-13T15:10:53;24.23;;;14.50;;
13108;SDS011;6620;53.734;11.510;2023-02-13T15:13:22;22.58;;;15.15;;
13108;SDS011;6620;53.734;11.510;2023-02-13T15:16:10;25.27;;;16.05;;
13108;SDS011;6620;53.734;11.510;2023-02-13T15:18:39;25.33;;;15.05;;
13108;SDS011;6620;53.734;11.510;2023-02-13T15:23:31;25.27;;;14.82;;
13108;SDS011;6620;53.734;11.510;2023-02-13T15:28:26;25.02;;;15.68;;
13108;SDS011;6620;53.734;11.510;2023-02-13T15:30:52;26.55;;;15.70;;
13108;SDS011;6620;53.734;11.510;2023-02-13T15:33:18;27.08;;;15.88;;
13108;SDS011;6620;53.734;11.510;2023-02-13T15:35:44;29.25;;;16.25;;
13108;SDS011;6620;53.734;11.510;2023-02-13T15:38:26;28.27;;;16.95;;
13108;SDS011;6620;53.734;11.510;2023-02-13T15:43:21;29.13;;;15.90;;
13108;SDS011;6620;53.734;11.510;2023-02-13T15:45:47;27.15;;;15.40;;
13108;SDS011;6620;53.734;11.510;2023-02-13T15:48:15;28.10;;;16.85;;
13108;SDS011;6620;53.734;11.510;2023-02-13T15:50:41;26.02;;;16.02;;
13108;SDS011;6620;53.734;11.510;2023-02-13T15:53:09;26.25;;;14.45;;
13108;SDS011;6620;53.734;11.510;2023-02-13T15:55:36;23.45;;;14.32;;
13108;SDS011;6620;53.734;11.510;2023-02-13T15:58:02;26.83;;;15.80;;
13108;SDS011;6620;53.734;11.510;2023-02-13T16:00:29;25.13;;;15.00;;
13108;SDS011;6620;53.734;11.510;2023-02-13T16:02:55;27.83;;;16.92;;
13108;SDS011;6620;53.734;11.510;2023-02-13T16:05:20;28.88;;;16.50;;
13108;SDS011;6620;53.734;11.510;2023-02-13T16:07:56;31.33;;;15.45;;
13108;SDS011;6620;53.734;11.510;2023-02-13T16:12:47;31.97;;;17.07;;
13108;SDS011;6620;53.734;11.510;2023-02-13T16:15:16;31.38;;;17.42;;
13108;SDS011;6620;53.734;11.510;2023-02-13T16:17:42;28.83;;;16.90;;
13108;SDS011;6620;53.734;11.510;2023-02-13T16:22:46;35.40;;;16.75;;
13108;SDS011;6620;53.734;11.510;2023-02-13T16:27:44;34.30;;;19.20;;
13108;SDS011;6620;53.734;11.510;2023-02-13T16:32:47;33.13;;;18.67;;
13108;SDS011;6620;53.734;11.510;2023-02-13T16:37:49;31.77;;;17.52;;
13108;SDS011;6620;53.734;11.510;2023-02-13T16:40:47;32.17;;;18.80;;
13108;SDS011;6620;53.734;11.510;2023-02-13T16:45:49;33.67;;;18.00;;
13108;SDS011;6620;53.734;11.510;2023-02-13T16:48:15;36.60;;;20.10;;
13108;SDS011;6620;53.734;11.510;2023-02-13T16:50:40;33.88;;;19.92;;
13108;SDS011;6620;53.734;11.510;2023-02-13T16:53:06;35.08;;;18.25;;
13108;SDS011;6620;53.734;11.510;2023-02-13T16:55:31;37.88;;;19.65;;
13108;SDS011;6620;53.734;11.510;2023-02-13T16:58:00;37.07;;;19.37;;
13108;SDS011;6620;53.734;11.510;2023-02-13T17:00:26;35.15;;;17.48;;
13108;SDS011;6620;53.734;11.510;2023-02-13T17:02:52;37.70;;;20.13;;
13108;SDS011;6620;53.734;11.510;2023-02-13T17:07:44;38.95;;;21.40;;
13108;SDS011;6620;53.734;11.510;2023-02-13T17:10:22;32.33;;;18.17;;
13108;SDS011;6620;53.734;11.510;2023-02-13T17:12:50;34.90;;;18.52;;
13108;SDS011;6620;53.734;11.510;2023-02-13T17:15:16;34.28;;;19.00;;
13108;SDS011;6620;53.734;11.510;2023-02-13T17:17:42;37.20;;;20.23;;
13108;SDS011;6620;53.734;11.510;2023-02-13T17:20:07;36.55;;;20.20;;
13108;SDS011;6620;53.734;11.510;2023-02-13T17:22:34;36.33;;;18.48;;
13108;SDS011;6620;53.734;11.510;2023-02-13T17:25:01;39.20;;;20.08;;
13108;SDS011;6620;53.734;11.510;2023-02-13T17:27:26;34.42;;;19.50;;
13108;SDS011;6620;53.734;11.510;2023-02-13T17:29:51;36.22;;;19.15;;
13108;SDS011;6620;53.734;11.510;2023-02-13T17:32:18;36.58;;;19.40;;
13108;SDS011;6620;53.734;11.510;2023-02-13T17:34:44;36.88;;;19.25;;
13108;SDS011;6620;53.734;11.510;2023-02-13T17:37:17;41.33;;;20.48;;
13108;SDS011;6620;53.734;11.510;2023-02-13T17:39:43;40.70;;;18.27;;
13108;SDS011;6620;53.734;11.510;2023-02-13T17:45:02;34.80;;;19.30;;